Impacts TAF Board
For situational awareness. Not to be used for flight planning purposes.
IDs:

KLBE - Latrobe/Palmer Rgnl, PA, US

Issued at 1720 UTC 01 Feb 2023
Updated at 2254 UTC 01 Feb 2023
Potential Impact None Slight Moderate High
Time2247Z 01/23Z 02/00Z 02/01Z 02/02Z 02/03Z 02/04Z 02/05Z 02/06Z 02/07Z 02/08Z 02/09Z 02/10Z 02/11Z>>
Type OBS PRVL PRVL PRVL PRVL PRVL PRVL PRVL PRVL PRVL PRVL PRVL PRVL PRVL
VIS 20 >6 >6 >6 >6 >6 >6 >6 >6 >6 >6 >6 >6 >6
CIG -- -- -- -- 250 250 250 250 250 250 250 250 250 250
Cover CLR SCT SCT SCT BKN BKN BKN BKN BKN BKN BKN BKN BKN BKN
FltCat VFR VFR VFR VFR VFR VFR VFR VFR VFR VFR VFR VFR VFR VFR
WX -- -- -- -- -- -- -- -- -- -- -- -- -- --
WDir VRB 280 280 280 220 220 220 220 220 220 220 220 220 220
WSpd 0 8 8 8 5 5 5 5 5 5 5 5 5 5
WGst -- -- -- -- -- -- -- -- -- -- -- -- -- --
WSHgt -- -- -- -- -- -- -- -- -- -- -- -- -- --
WSDir -- -- -- -- -- -- -- -- -- -- -- -- -- --
WSSpd -- -- -- -- -- -- -- -- -- -- -- -- -- --

NOTE: LAMP data beyond the time of the TAF data is denoted as LAMP in Type and colored magenta.

Raw TAF
KLBE 011720Z 0118/0218 28008KT P6SM SCT250
  FM020200 22005KT P6SM BKN250
  FM021400 24012G20KT P6SM SCT250


Raw METAR
KLBE 012247Z 00000KT 20SM CLR M05/M14 A3029
KLBE 012147Z 23006KT 20SM CLR M04/M13 A3029
KLBE 012045Z 22007KT 15SM CLR M04/M13 A3030
KLBE 011955Z 23008KT 15SM CLR M04/M13 A3030

METAR Board
Radar Display
Forecast Discussion

For situational awareness. Not to be used for flight planning purposes.